Terminal Aerodrome Forecast
Issued by NWS Cleveland, OH

Home | Current Version | Previous Version | Text Only | Print | Product List | Glossary Off
Versions: 1 2 3 4 5 6 7 8 9 10 11 12 13 14 15 16 17 18 19 20 21 22 23 24 25

850
FTUS41 KCLE 252240 AAC
TAFMFD
TAF AMD
KMFD 252240Z 2523/2618 VRB04KT P6SM -RA SCT008 OVC035
      TEMPO 2523/2602 2SM -SHRA OVC008
     FM260200 28008KT P6SM OVC008
     FM261500 28008KT P6SM OVC015=

USA.gov is the U.S. government's official web portal to all federal, state and local government web resources and services.